createdAt,value
2022-11-17T00:00:22.019Z,13.00
2022-11-17T00:02:48.682Z,13.32
2022-11-17T00:05:16.001Z,13.07
2022-11-17T00:07:43.431Z,13.20
2022-11-17T00:10:10.073Z,13.48
2022-11-17T00:12:55.227Z,12.75
2022-11-17T00:15:21.723Z,11.60
2022-11-17T00:18:10.988Z,12.45
2022-11-17T00:20:59.963Z,13.43
2022-11-17T00:23:47.146Z,12.07
2022-11-17T00:26:16.243Z,11.80
2022-11-17T00:28:42.609Z,12.80
2022-11-17T00:31:30.475Z,11.50
2022-11-17T00:34:06.546Z,11.67
2022-11-17T00:36:40.728Z,12.07
2022-11-17T00:39:08.856Z,11.93
2022-11-17T00:41:35.816Z,12.00
2022-11-17T00:44:02.496Z,12.00
2022-11-17T00:46:29.089Z,12.27
2022-11-17T00:48:55.695Z,11.65
2022-11-17T00:51:22.795Z,11.10
2022-11-17T00:53:49.553Z,11.70
2022-11-17T00:56:16.594Z,12.13
2022-11-17T00:58:43.248Z,11.87
2022-11-17T01:01:10.435Z,12.55
2022-11-17T01:03:37.967Z,12.73
2022-11-17T01:06:08.434Z,12.45
2022-11-17T01:08:35.638Z,12.73
2022-11-17T01:11:07.983Z,11.63
2022-11-17T01:13:34.866Z,12.23
2022-11-17T01:16:03.786Z,12.32
2022-11-17T01:18:30.210Z,12.57
2022-11-17T01:20:56.705Z,13.40
2022-11-17T01:23:23.232Z,11.53
2022-11-17T01:25:49.793Z,12.73
2022-11-17T01:28:16.269Z,11.70
2022-11-17T01:30:42.602Z,12.65
2022-11-17T01:33:09.100Z,12.43
2022-11-17T01:35:35.738Z,10.70
2022-11-17T01:38:02.242Z,12.40
2022-11-17T01:40:28.722Z,12.52
2022-11-17T01:42:55.210Z,12.30
2022-11-17T01:45:24.354Z,12.45
2022-11-17T01:48:00.756Z,13.83
2022-11-17T01:50:33.201Z,13.38
2022-11-17T01:53:02.665Z,12.27
2022-11-17T01:55:34.590Z,12.25
2022-11-17T01:58:08.708Z,12.27
2022-11-17T02:00:35.409Z,12.63
2022-11-17T02:03:02.383Z,12.32
2022-11-17T02:05:42.341Z,12.73
2022-11-17T02:08:10.132Z,13.57
2022-11-17T02:10:37.232Z,13.55
2022-11-17T02:13:04.594Z,13.30
2022-11-17T02:15:31.309Z,15.07
2022-11-17T02:17:58.846Z,13.65
2022-11-17T02:20:47.170Z,13.38
2022-11-17T02:23:48.847Z,13.70
2022-11-17T02:26:20.992Z,14.13
2022-11-17T02:29:08.484Z,14.32
2022-11-17T02:31:52.112Z,13.82
2022-11-17T02:34:46.623Z,15.30
2022-11-17T02:37:15.965Z,14.93
2022-11-17T02:40:12.966Z,15.43
2022-11-17T02:43:12.303Z,14.35
2022-11-17T02:45:47.477Z,13.73
2022-11-17T02:48:19.390Z,14.18
2022-11-17T02:50:48.782Z,14.95
2022-11-17T02:53:16.510Z,16.77
2022-11-17T02:55:50.259Z,15.25
2022-11-17T02:58:16.795Z,15.32
2022-11-17T03:01:10.741Z,15.48
2022-11-17T03:03:48.524Z,15.88
2022-11-17T03:06:36.470Z,16.23
2022-11-17T03:09:30.589Z,14.65
2022-11-17T03:12:13.545Z,15.65
2022-11-17T03:14:58.342Z,17.02
2022-11-17T03:17:32.637Z,15.32
2022-11-17T03:20:24.860Z,16.13
2022-11-17T03:23:06.064Z,15.50
2022-11-17T03:25:37.530Z,16.65
2022-11-17T03:28:08.390Z,16.42
2022-11-17T03:30:38.265Z,17.45
2022-11-17T03:33:11.678Z,16.00
2022-11-17T03:35:46.333Z,17.02
2022-11-17T03:38:18.450Z,16.15
2022-11-17T03:40:47.587Z,16.33
2022-11-17T03:43:17.402Z,16.23
2022-11-17T03:45:50.096Z,16.67
2022-11-17T03:48:39.193Z,16.08
2022-11-17T03:51:18.563Z,15.40
2022-11-17T03:53:46.749Z,15.15
2022-11-17T03:56:37.519Z,14.43
2022-11-17T03:59:12.679Z,15.50
2022-11-17T04:01:39.703Z,16.23
2022-11-17T04:04:06.158Z,14.65
2022-11-17T04:06:32.883Z,15.45
2022-11-17T04:08:59.214Z,15.10
2022-11-17T04:11:44.238Z,13.93
2022-11-17T04:14:29.119Z,14.52
2022-11-17T04:16:55.620Z,12.98
2022-11-17T04:19:22.156Z,13.43
2022-11-17T04:21:48.815Z,13.57
2022-11-17T04:24:15.184Z,12.60
2022-11-17T04:27:00.043Z,13.20
2022-11-17T04:29:26.598Z,11.80
2022-11-17T04:31:53.079Z,12.82
2022-11-17T04:34:19.390Z,12.32
2022-11-17T04:36:46.234Z,11.93
2022-11-17T04:39:14.887Z,12.77
2022-11-17T04:41:54.314Z,12.13
2022-11-17T04:44:23.453Z,12.60
2022-11-17T04:46:50.241Z,12.35
2022-11-17T04:49:18.851Z,11.50
2022-11-17T04:51:45.673Z,12.50
2022-11-17T04:54:14.836Z,12.10
2022-11-17T04:56:41.653Z,12.38
2022-11-17T04:59:08.537Z,13.00
2022-11-17T05:01:35.351Z,12.37
2022-11-17T05:04:04.607Z,12.40
2022-11-17T05:06:34.031Z,13.23
2022-11-17T05:09:04.426Z,13.43
2022-11-17T05:11:50.075Z,12.43
2022-11-17T05:14:19.663Z,13.00
2022-11-17T05:17:09.551Z,13.05
2022-11-17T05:19:40.727Z,12.63
2022-11-17T05:22:28.721Z,12.18
2022-11-17T05:24:56.007Z,11.68
2022-11-17T05:27:23.421Z,11.40
2022-11-17T05:29:49.935Z,13.13
2022-11-17T05:32:16.929Z,12.32
2022-11-17T05:34:43.387Z,12.77
2022-11-17T05:37:09.862Z,12.70
2022-11-17T05:39:36.733Z,10.90
2022-11-17T05:42:03.282Z,14.40
2022-11-17T05:44:29.802Z,17.05
2022-11-17T05:46:56.312Z,15.93
2022-11-17T05:49:22.790Z,14.75
2022-11-17T05:51:52.694Z,14.93
2022-11-17T05:54:19.601Z,12.93
2022-11-17T05:57:09.297Z,11.95
2022-11-17T05:59:44.264Z,12.20
2022-11-17T06:02:22.265Z,12.30
2022-11-17T06:04:50.345Z,12.00
2022-11-17T06:07:18.149Z,11.73
2022-11-17T06:09:46.029Z,12.10
2022-11-17T06:12:12.578Z,11.88
2022-11-17T06:14:39.933Z,12.38
2022-11-17T06:17:21.911Z,12.53
2022-11-17T06:19:57.939Z,12.35
2022-11-17T06:22:26.795Z,12.48
2022-11-17T06:24:54.236Z,12.07
2022-11-17T06:27:20.957Z,12.13
2022-11-17T06:29:48.326Z,11.33
2022-11-17T06:32:17.833Z,10.52
2022-11-17T06:34:51.948Z,9.90
2022-11-17T06:37:21.596Z,10.23
2022-11-17T06:39:48.090Z,10.32
2022-11-17T06:42:14.594Z,9.57
2022-11-17T06:44:41.083Z,10.35
2022-11-17T06:47:07.574Z,10.40
2022-11-17T06:49:33.874Z,9.80
2022-11-17T06:52:00.433Z,9.57
2022-11-17T06:54:27.027Z,10.03
2022-11-17T06:56:53.563Z,10.25
2022-11-17T06:59:19.952Z,10.50
2022-11-17T07:01:46.545Z,10.25
2022-11-17T07:04:13.219Z,9.80
2022-11-17T07:06:39.613Z,9.90
2022-11-17T07:09:06.122Z,10.05
2022-11-17T07:11:35.182Z,10.10
2022-11-17T07:14:01.531Z,9.85
2022-11-17T07:16:29.237Z,9.88
2022-11-17T07:18:55.680Z,10.40
2022-11-17T07:21:22.658Z,10.48
2022-11-17T07:23:49.011Z,10.02
2022-11-17T07:26:15.434Z,9.45
2022-11-17T07:28:41.849Z,10.60
2022-11-17T07:31:09.280Z,9.47
2022-11-17T07:33:36.426Z,10.05
2022-11-17T07:36:11.207Z,9.75
2022-11-17T07:38:40.100Z,9.23
2022-11-17T07:41:08.799Z,9.50
2022-11-17T07:43:36.449Z,9.63
2022-11-17T07:46:06.204Z,9.68
2022-11-17T07:48:33.200Z,9.30
2022-11-17T07:51:01.235Z,9.77
2022-11-17T07:53:28.070Z,10.10
2022-11-17T07:55:55.117Z,9.27
2022-11-17T07:58:21.786Z,9.65
2022-11-17T08:00:48.464Z,9.02
2022-11-17T08:03:15.178Z,9.82
2022-11-17T08:05:43.600Z,10.10
2022-11-17T08:08:10.499Z,8.57
2022-11-17T08:10:37.080Z,9.77
2022-11-17T08:13:04.022Z,9.52
2022-11-17T08:15:31.348Z,9.07
2022-11-17T08:17:59.896Z,9.68
2022-11-17T08:20:28.950Z,8.93
2022-11-17T08:22:56.076Z,8.65
2022-11-17T08:25:25.139Z,8.93
2022-11-17T08:27:54.997Z,8.73
2022-11-17T08:30:22.335Z,8.60
2022-11-17T08:32:51.716Z,8.43
2022-11-17T08:35:24.671Z,9.25
2022-11-17T08:37:51.866Z,9.43
2022-11-17T08:40:18.863Z,8.60
2022-11-17T08:42:46.163Z,7.80
2022-11-17T08:45:13.628Z,8.50
2022-11-17T08:47:40.269Z,8.70
2022-11-17T08:50:07.521Z,8.50
2022-11-17T08:52:34.530Z,8.45
2022-11-17T08:55:02.308Z,8.32
2022-11-17T08:57:32.546Z,8.10
2022-11-17T08:59:59.210Z,7.93
2022-11-17T09:02:26.463Z,7.85
2022-11-17T09:04:53.042Z,7.00
2022-11-17T09:07:19.957Z,7.72
2022-11-17T09:09:46.500Z,7.90
2022-11-17T09:12:13.066Z,7.47
2022-11-17T09:14:39.435Z,7.30
2022-11-17T09:17:05.863Z,7.68
2022-11-17T09:19:32.319Z,6.65
2022-11-17T09:21:59.612Z,7.33
2022-11-17T09:24:26.735Z,7.38
2022-11-17T09:26:54.785Z,6.72
2022-11-17T09:29:21.702Z,6.60
2022-11-17T09:31:48.243Z,8.85
2022-11-17T09:34:15.283Z,6.80
2022-11-17T09:36:42.222Z,7.43
2022-11-17T09:39:08.774Z,6.32
2022-11-17T09:41:46.101Z,6.13
2022-11-17T09:44:24.757Z,8.50
2022-11-17T09:46:58.292Z,6.87
2022-11-17T09:49:55.098Z,5.50
2022-11-17T09:52:35.881Z,8.27
2022-11-17T09:55:34.333Z,10.88
2022-11-17T09:58:07.229Z,7.28
2022-11-17T10:00:36.481Z,8.57
2022-11-17T10:03:09.910Z,6.82
2022-11-17T10:05:36.435Z,7.13
2022-11-17T10:08:16.381Z,9.70
2022-11-17T10:10:47.629Z,8.15
2022-11-17T10:13:27.920Z,8.40
2022-11-17T10:16:00.197Z,7.82
2022-11-17T10:18:31.480Z,8.57
2022-11-17T10:21:01.792Z,7.88
2022-11-17T10:23:38.780Z,7.75
2022-11-17T10:26:11.073Z,7.37
2022-11-17T10:28:37.818Z,7.82
2022-11-17T10:31:10.202Z,7.45
2022-11-17T10:33:44.156Z,8.07
2022-11-17T10:36:19.951Z,8.50
2022-11-17T10:38:52.067Z,7.67
2022-11-17T10:41:36.454Z,7.47
2022-11-17T10:44:06.086Z,7.43
2022-11-17T10:46:43.193Z,7.35
2022-11-17T10:49:25.300Z,7.88
2022-11-17T10:52:17.991Z,7.50
2022-11-17T10:54:44.829Z,8.70
2022-11-17T10:57:22.564Z,7.28
2022-11-17T10:59:56.871Z,6.80
2022-11-17T11:02:30.605Z,8.07
2022-11-17T11:05:14.916Z,7.30
2022-11-17T11:07:42.145Z,11.75
2022-11-17T11:10:37.445Z,8.02
2022-11-17T11:13:19.268Z,7.43
2022-11-17T11:15:46.360Z,9.10
2022-11-17T11:18:15.491Z,8.23
2022-11-17T11:21:22.184Z,7.00
2022-11-17T11:24:19.539Z,5.85
2022-11-17T11:27:16.003Z,5.50
2022-11-17T11:30:00.490Z,5.57
2022-11-17T11:33:04.556Z,5.67
2022-11-17T11:35:40.775Z,4.80
2022-11-17T11:38:46.988Z,4.70
2022-11-17T11:41:22.942Z,5.80
2022-11-17T11:44:07.872Z,6.80
2022-11-17T11:46:52.432Z,5.47
2022-11-17T11:49:37.836Z,6.72
2022-11-17T11:52:10.469Z,7.05
2022-11-17T11:54:51.349Z,4.40
2022-11-17T11:57:25.616Z,11.00
2022-11-17T12:00:04.984Z,8.03
2022-11-17T12:02:42.547Z,8.35
2022-11-17T12:05:29.283Z,6.40
2022-11-17T12:08:02.587Z,6.15
2022-11-17T12:10:58.656Z,5.57
2022-11-17T12:13:26.050Z,5.30
2022-11-17T12:16:19.416Z,6.53
2022-11-17T12:18:45.866Z,3.33
2022-11-17T12:21:13.731Z,3.40
2022-11-17T12:23:49.427Z,3.67
2022-11-17T12:26:27.752Z,3.83
2022-11-17T12:29:22.265Z,39.17
2022-11-17T12:32:00.371Z,4.97
2022-11-17T12:34:36.890Z,2.95
2022-11-17T12:37:13.240Z,3.20
2022-11-17T12:40:06.497Z,2.13
2022-11-17T12:42:34.234Z,1.45
2022-11-17T12:45:08.750Z,1.27
2022-11-17T12:48:04.838Z,1.13
2022-11-17T12:50:53.867Z,1.38
2022-11-17T12:53:29.250Z,1.20
2022-11-17T12:56:14.285Z,1.10
2022-11-17T12:59:18.944Z,1.33
2022-11-17T13:02:03.905Z,0.85
2022-11-17T13:04:43.834Z,1.38
2022-11-17T13:07:25.871Z,0.90
2022-11-17T13:09:57.582Z,0.80
2022-11-17T13:12:27.329Z,1.10
2022-11-17T13:14:55.903Z,0.70
2022-11-17T13:17:32.943Z,0.80
2022-11-17T13:20:20.691Z,0.90
2022-11-17T13:23:13.252Z,0.85
2022-11-17T13:25:39.943Z,0.75
2022-11-17T13:28:06.568Z,0.88
2022-11-17T13:30:33.147Z,1.00
2022-11-17T13:33:02.340Z,0.77
2022-11-17T13:35:36.035Z,1.38
2022-11-17T13:38:11.454Z,0.80
2022-11-17T13:40:41.148Z,1.08
2022-11-17T13:43:12.757Z,0.43
2022-11-17T13:45:40.511Z,0.60
2022-11-17T13:48:06.910Z,1.08
2022-11-17T13:50:37.029Z,2.33
2022-11-17T13:53:23.152Z,0.77
2022-11-17T13:55:49.822Z,0.55
2022-11-17T13:58:40.102Z,0.50
2022-11-17T14:01:11.053Z,0.70
2022-11-17T14:03:39.946Z,0.70
2022-11-17T14:06:09.645Z,0.50
2022-11-17T14:08:37.949Z,0.88
2022-11-17T14:11:07.586Z,0.47
2022-11-17T14:13:51.083Z,0.57
2022-11-17T14:16:38.272Z,1.00
2022-11-17T14:19:24.355Z,0.70
2022-11-17T14:22:27.701Z,0.38
2022-11-17T14:24:57.739Z,0.90
2022-11-17T14:27:26.948Z,1.40
2022-11-17T14:29:53.444Z,8.35
2022-11-17T14:32:19.782Z,1.45
2022-11-17T14:34:46.220Z,0.50
2022-11-17T14:37:12.681Z,2.20
2022-11-17T14:39:38.972Z,2.33
2022-11-17T14:42:05.348Z,24.08
2022-11-17T14:44:31.778Z,4.90
2022-11-17T14:46:58.366Z,10.85
2022-11-17T14:49:25.329Z,12.90
2022-11-17T14:51:53.264Z,4.97
2022-11-17T14:54:19.801Z,2.30
2022-11-17T14:56:46.203Z,1.75
2022-11-17T14:59:13.404Z,2.72
2022-11-17T15:01:41.627Z,4.83
2022-11-17T15:04:34.499Z,6.80
2022-11-17T15:06:54.678Z,4.15
2022-11-17T15:09:21.463Z,2.72
2022-11-17T15:11:48.152Z,2.58
2022-11-17T15:14:14.902Z,1.60
2022-11-17T15:16:41.539Z,1.65
2022-11-17T15:19:08.233Z,2.50
2022-11-17T15:21:34.830Z,3.05
2022-11-17T15:24:03.293Z,1.15
2022-11-17T15:26:29.675Z,1.23
2022-11-17T15:28:57.879Z,1.40
2022-11-17T15:31:24.410Z,1.08
2022-11-17T15:33:51.018Z,1.45
2022-11-17T15:36:20.052Z,1.83
2022-11-17T15:38:47.970Z,1.77
2022-11-17T15:41:15.752Z,1.52
2022-11-17T15:43:44.086Z,2.00
2022-11-17T15:46:15.862Z,2.10
2022-11-17T15:48:44.664Z,2.45
2022-11-17T15:51:17.071Z,2.67
2022-11-17T15:53:45.494Z,2.55
2022-11-17T15:56:17.707Z,2.50
2022-11-17T15:58:45.214Z,2.90
2022-11-17T16:01:23.957Z,3.03
2022-11-17T16:03:51.669Z,5.40
2022-11-17T16:06:19.023Z,7.38
2022-11-17T16:08:45.405Z,6.18
2022-11-17T16:11:11.782Z,4.70
2022-11-17T16:13:38.495Z,5.22
2022-11-17T16:16:05.406Z,5.53
2022-11-17T16:18:35.132Z,5.50
2022-11-17T16:21:04.808Z,5.70
2022-11-17T16:23:37.403Z,4.88
2022-11-17T16:26:03.979Z,4.40
2022-11-17T16:28:30.358Z,4.30
2022-11-17T16:30:56.878Z,3.80
2022-11-17T16:33:23.373Z,3.50
2022-11-17T16:35:49.801Z,3.45
2022-11-17T16:38:17.770Z,3.55
2022-11-17T16:40:44.154Z,2.70
2022-11-17T16:43:13.024Z,3.20
2022-11-17T16:45:45.047Z,3.30
2022-11-17T16:48:12.528Z,3.08
2022-11-17T16:50:40.840Z,2.70
2022-11-17T16:53:07.546Z,2.60
2022-11-17T16:55:35.371Z,3.00
2022-11-17T16:58:03.430Z,2.72
2022-11-17T17:00:30.075Z,2.38
2022-11-17T17:02:57.236Z,2.80
2022-11-17T17:05:25.149Z,2.73
2022-11-17T17:07:51.648Z,2.88
2022-11-17T17:10:18.054Z,3.00
2022-11-17T17:12:44.619Z,4.63
2022-11-17T17:15:11.211Z,4.78
2022-11-17T17:17:38.366Z,8.27
2022-11-17T17:20:05.674Z,10.52
2022-11-17T17:22:32.833Z,11.55
2022-11-17T17:24:59.236Z,11.35
2022-11-17T17:27:25.551Z,11.68
2022-11-17T17:29:56.710Z,10.10
2022-11-17T17:32:23.319Z,10.65
2022-11-17T17:34:50.062Z,9.75
2022-11-17T17:37:16.842Z,10.32
2022-11-17T17:39:43.382Z,11.60
2022-11-17T17:42:09.912Z,12.50
2022-11-17T17:44:36.540Z,11.70
2022-11-17T17:47:03.156Z,11.98
2022-11-17T17:49:29.519Z,11.95
2022-11-17T17:51:55.851Z,16.20
2022-11-17T17:54:24.163Z,18.80
2022-11-17T17:56:50.555Z,18.15
2022-11-17T17:59:18.110Z,15.70
2022-11-17T18:01:47.348Z,13.10
2022-11-17T18:04:16.227Z,11.88
2022-11-17T18:06:46.291Z,11.00
2022-11-17T18:09:14.537Z,12.35
2022-11-17T18:11:47.759Z,12.10
2022-11-17T18:14:14.280Z,13.18
2022-11-17T18:16:41.269Z,13.60
2022-11-17T18:19:09.090Z,14.80
2022-11-17T18:21:36.325Z,16.15
2022-11-17T18:24:03.639Z,15.45
2022-11-17T18:26:33.177Z,17.38
2022-11-17T18:29:13.403Z,17.92
2022-11-17T18:31:40.175Z,16.73
2022-11-17T18:34:13.403Z,16.23
2022-11-17T18:36:40.259Z,14.48
2022-11-17T18:39:06.878Z,14.07
2022-11-17T18:41:33.954Z,14.23
2022-11-17T18:44:00.893Z,14.73
2022-11-17T18:46:30.024Z,13.55
2022-11-17T18:48:56.891Z,13.20
2022-11-17T18:51:26.488Z,15.55
2022-11-17T18:53:54.470Z,14.20
2022-11-17T18:56:23.209Z,14.27
2022-11-17T18:58:50.171Z,15.35
2022-11-17T19:01:25.428Z,15.07
2022-11-17T19:03:53.774Z,13.73
2022-11-17T19:06:22.680Z,17.92
2022-11-17T19:08:49.889Z,17.20
2022-11-17T19:11:18.214Z,10.40
2022-11-17T19:16:44.549Z,11.65
2022-11-17T19:19:13.653Z,13.13
2022-11-17T19:21:40.694Z,12.20
2022-11-17T19:24:07.810Z,11.68
2022-11-17T19:26:36.203Z,10.95
2022-11-17T19:29:07.813Z,10.82
2022-11-17T19:31:37.854Z,11.07
2022-11-17T19:34:04.405Z,12.40
2022-11-17T19:36:33.594Z,13.02
2022-11-17T19:39:01.575Z,11.27
2022-11-17T19:41:31.142Z,10.40
2022-11-17T19:44:00.267Z,10.95
2022-11-17T19:46:28.508Z,10.43
2022-11-17T19:48:56.437Z,14.15
2022-11-17T19:51:25.925Z,13.07
2022-11-17T19:53:54.996Z,10.98
2022-11-17T19:56:22.640Z,10.68
2022-11-17T19:58:49.870Z,11.17
2022-11-17T20:01:27.847Z,10.80
2022-11-17T20:03:55.787Z,11.20
2022-11-17T20:06:24.546Z,13.43
2022-11-17T20:08:51.385Z,13.82
2022-11-17T20:11:21.421Z,13.10
2022-11-17T20:13:48.229Z,12.57
2022-11-17T20:16:18.679Z,14.63
2022-11-17T20:18:50.067Z,16.52
2022-11-17T20:21:16.790Z,16.23
2022-11-17T20:23:43.715Z,16.50
2022-11-17T20:26:16.250Z,16.27
2022-11-17T20:28:43.094Z,18.35
2022-11-17T20:31:12.381Z,16.58
2022-11-17T20:33:39.879Z,20.58
2022-11-17T20:36:08.187Z,20.87
2022-11-17T20:38:36.097Z,23.73
2022-11-17T20:41:03.948Z,21.65
2022-11-17T20:43:30.647Z,23.35
2022-11-17T20:45:57.989Z,22.92
2022-11-17T20:48:25.835Z,21.07
2022-11-17T20:51:10.975Z,19.17
2022-11-17T20:53:37.839Z,13.93
2022-11-17T20:56:07.079Z,14.43
2022-11-17T20:58:34.291Z,11.65
2022-11-17T21:01:15.661Z,12.60
2022-11-17T21:03:43.484Z,17.55
2022-11-17T21:06:10.306Z,17.15
2022-11-17T21:08:38.928Z,16.05
2022-11-17T21:11:08.286Z,15.18
2022-11-17T21:13:36.123Z,12.83
2022-11-17T21:16:05.550Z,9.82
2022-11-17T21:18:32.898Z,8.05
2022-11-17T21:21:00.206Z,9.20
2022-11-17T21:23:28.099Z,8.55
2022-11-17T21:25:54.873Z,6.87
2022-11-17T21:28:21.782Z,5.80
2022-11-17T21:30:48.364Z,4.45
2022-11-17T21:33:14.920Z,4.07
2022-11-17T21:35:41.522Z,4.10
2022-11-17T21:38:09.029Z,3.93
2022-11-17T21:40:35.399Z,4.35
2022-11-17T21:43:01.849Z,2.63
2022-11-17T21:45:28.503Z,2.47
2022-11-17T21:47:59.236Z,2.05
2022-11-17T21:50:26.203Z,1.90
2022-11-17T21:52:52.610Z,1.30
2022-11-17T21:55:19.224Z,0.85
2022-11-17T21:57:45.559Z,0.60
2022-11-17T22:00:12.426Z,0.57
2022-11-17T22:02:38.945Z,0.60
2022-11-17T22:05:05.774Z,0.32
2022-11-17T22:07:32.183Z,0.90
2022-11-17T22:09:58.810Z,0.47
2022-11-17T22:12:25.367Z,0.50
2022-11-17T22:14:51.967Z,0.87
2022-11-17T22:17:18.568Z,0.30
2022-11-17T22:19:44.949Z,0.50
2022-11-17T22:22:11.453Z,0.47
2022-11-17T22:24:39.853Z,0.28
2022-11-17T22:27:06.764Z,0.40
2022-11-17T22:29:33.408Z,0.30
2022-11-17T22:31:59.795Z,0.50
2022-11-17T22:34:26.438Z,0.70
2022-11-17T22:36:53.022Z,0.82
2022-11-17T22:39:19.884Z,0.93
2022-11-17T22:41:46.643Z,0.50
2022-11-17T22:44:15.064Z,1.02
2022-11-17T22:46:43.284Z,2.95
2022-11-17T22:49:10.522Z,0.60
2022-11-17T22:51:55.420Z,0.30
2022-11-17T22:54:21.966Z,0.28
2022-11-17T22:56:48.779Z,0.30
2022-11-17T22:59:15.529Z,0.20
2022-11-17T23:01:42.287Z,0.30
2022-11-17T23:04:08.902Z,0.77
2022-11-17T23:06:37.683Z,0.40
2022-11-17T23:09:04.070Z,0.57
2022-11-17T23:11:36.994Z,0.60
2022-11-17T23:14:07.246Z,0.60
2022-11-17T23:16:33.929Z,12.87
2022-11-17T23:19:00.582Z,5.55
2022-11-17T23:21:27.266Z,4.30
2022-11-17T23:23:53.705Z,1.30
2022-11-17T23:26:20.903Z,0.38
2022-11-17T23:28:47.306Z,0.23
2022-11-17T23:31:16.090Z,0.20
2022-11-17T23:33:44.868Z,0.47
2022-11-17T23:36:14.380Z,0.35
2022-11-17T23:38:40.963Z,0.30
2022-11-17T23:41:10.324Z,0.40
2022-11-17T23:43:36.926Z,0.28
2022-11-17T23:46:06.010Z,0.40
2022-11-17T23:48:32.598Z,0.30
2022-11-17T23:51:03.606Z,0.20
2022-11-17T23:53:30.092Z,0.20
2022-11-17T23:55:57.760Z,0.25
2022-11-17T23:58:24.393Z,0.30
